Tiempo atmosférico en la estación meteorológica de Cabo de Gata, Almería (42 m.)



Fecha
DESCASC
Temp. máxima en grados centígrados (hora)
DESCASC
Temp. mínima en grados centígrados (hora)
DESCASC
Temp. media en grados centígrados
DESCASC
Racha de viento máxima en m/sg (hora)
DESCASC
Velocidad máxima media en intervalos de 10 minutos(hora)
DESCASC
Precipitaciones diarias en mm
DESCASC
Precipitaciones de 00:00 a 06:00 en mm
DESCASC
Precipitaciones de 06:00 a 12:00 en mm
DESCASC
Precipitaciones de 12:00 a 18:00 en mm
DESCASC
Precipitaciones de 18:00 a 24:00 en mm
DESCASC
22-01-2020 15.9 (13:50) 10.9 (00:50) 13.4 17.78 (10:50) 12.22 (10:40) -- -- -- -- --
21-01-2020 12.2 (15:50) 9.1 (03:10) 10.7 19.72 (06:30) 9.72 (05:20) -- -- -- -- --
20-01-2020 11.6 (12:00) 7.7 (01:20) 9.7 28.61 (09:10) 13.89 (08:50) -- -- -- -- --
19-01-2020 16.4 (15:40) 8.5 (00:00) 12.4 19.17 (23:30) 11.39 (02:50) -- -- -- -- --
18-01-2020 15.5 (17:00) 12.7 (00:00) 14.1 10.28 (23:20) 6.67 (23:20) -- -- -- -- --
17-01-2020 17.7 (13:50) 12.9 (00:00) 15.3 11.94 (07:40) 8.33 (06:40) -- -- -- -- --
16-01-2020 17 (12:50) 11.2 (00:00) 14.1 11.94 (02:20) 7.78 (04:10) -- -- -- -- --
15-01-2020 17.9 (13:00) 12.4 (00:00) 15.1 12.78 (23:10) 7.5 (23:10) -- -- -- -- --
14-01-2020 17.1 (13:20) 11.1 (00:00) 14.1 9.72 (22:00) 5.56 (19:20) -- -- -- -- --
13-01-2020 16.6 (13:10) 10.8 (00:00) 13.7 8.33 (21:50) 5 (01:30) -- -- -- -- --
12-01-2020 16.7 (12:30) 11.1 (00:00) 13.9 6.67 (21:40) 5 (21:10) 0 0 0 0 0
11-01-2020 16.4 (13:40) 12.7 (00:00) 14.5 15.56 (14:00) 8.06 (15:40) 0 0 0 0 0
10-01-2020 17.8 (13:30) 12.7 (00:00) 15.2 13.33 (17:40) 8.06 (16:50) 0 0 0 0 0
09-01-2020 17.8 (13:40) 11.9 (00:00) 14.8 6.11 (23:59) 3.61 (21:10) 0 0 0 0 0
08-01-2020 16.3 (13:00) 11.8 (00:00) 14 10 (17:10) 7.5 (17:00) 0 0 0 0 0
07-01-2020 16.9 (13:50) 11.2 (00:00) 14 6.11 (23:40) 3.89 (21:10) 0 0 0 0 0
06-01-2020 15.9 (12:50) 11.8 (00:00) 13.8 8.89 (13:00) 5.56 (13:00) 0 0 0 0 0
05-01-2020 16.7 (12:00) 11.6 (00:00) 14.2 8.33 (14:30) 6.67 (14:30) 0 0 0 0 0
04-01-2020 14.1 (14:00) 12.4 (00:00) 13.3 9.17 (12:10) 5.83 (11:40) 0 0 0 0 0
03-01-2020 15.5 (15:20) 12.5 (00:00) 14 7.78 (10:00) 5.28 (22:20) 0 0 0 0 0
02-01-2020 15.4 (15:30) 12.1 (00:00) 13.8 4.72 (00:10) 2.78 (07:00) 0 0 0 0 0
01-01-2020 17.4 (12:50) 11.8 (00:00) 14.6 6.11 (00:20) 3.33 (00:10) 0 0 0 0 0
31-12-2019 16 (12:30) 12.3 (00:00) 14.2 7.5 (15:20) 5.83 (15:20) 0 0 0 0 0
30-12-2019 -- (--) -- (--) -- -- (--) -- (--) -- 0 0 -- 0
29-12-2019 16.8 (14:00) 12.7 (00:00) 14.7 11.67 (14:50) 8.33 (14:50) 0 0 0 0 0
28-12-2019 18.2 (12:10) 13 (00:00) 15.6 15.28 (17:50) 9.17 (14:30) 0 0 0 0 0
27-12-2019 19.1 (00:00) 14.6 (00:00) 16.9 18.06 (00:10) 8.61 (14:30) 0 0 0 0 0

Gráficas

Temp. máximas Temp. mínimas Temp. medias Precipitaciones Rachas de viento máximas Velocidades máximas media en intervalos de 10 minutos

Datos horarios

Fecha y hora oficial Temperatura (ºC) Velocidad del viento (km/h) Dirección del viento Racha (km/h) Dirección de racha Precipitación (mm) Presión (hPa) Tendencia (hPa) Humedad (%)
2020-01-25 23:00:00 13.6 5 Sur 13 Sur -- -- -- 81
2020-01-25 22:00:00 12.9 2 Noroeste 21 Noroeste -- -- -- 79
2020-01-25 21:00:00 13 10 Noroeste 22 Oeste -- -- -- 78
2020-01-25 20:00:00 13.2 15 Oeste 21 Oeste -- -- -- 79
2020-01-25 19:00:00 13.2 8 Noroeste 23 Noroeste -- -- -- 80
2020-01-25 18:00:00 13.8 0 Calma 8 Este -- -- -- 80
2020-01-25 17:00:00 13.6 3 Norte 22 Noroeste -- -- -- 80
2020-01-25 16:00:00 14.3 7 Noroeste 14 Noroeste -- -- -- 78
2020-01-25 15:00:00 14.5 10 Nordeste 22 Este -- -- -- 75
2020-01-25 14:00:00 14.5 15 Este 38 Este -- -- -- 75
2020-01-25 13:00:00 14.7 27 Este 35 Sudeste -- -- -- 76
2020-01-25 12:00:00 14.2 9 Oeste 20 Oeste -- -- -- 79
2020-01-25 11:00:00 13.9 4 Oeste 8 Oeste -- -- -- 78
2020-01-25 10:00:00 13.5 0 Calma 6 Oeste -- -- -- 78
2020-01-25 09:00:00 13.2 4 Nordeste 15 Este -- -- -- 77
2020-01-25 08:00:00 12.9 4 Noroeste 14 Este -- -- -- 78
2020-01-25 07:00:00 12.7 4 Nordeste 13 Oeste -- -- -- 79
2020-01-25 06:00:00 12.9 3 Noroeste 13 Norte -- -- -- 78
2020-01-25 05:00:00 13.3 10 Noroeste 19 Este -- -- -- 78
2020-01-25 04:00:00 13.5 7 Nordeste 28 Nordeste -- -- -- 80
2020-01-25 03:00:00 12.9 4 Noroeste 15 Noroeste -- -- -- 82
2020-01-25 02:00:00 13.4 6 Norte 23 Nordeste -- -- -- 82
2020-01-25 01:00:00 13.7 9 Norte 30 Este -- -- -- 81
2020-01-25 00:00:00 14 8 Este 33 Nordeste -- -- -- 80
2020-01-24 23:00:00 13.9 12 Nordeste 33 Nordeste -- -- -- 80
2020-01-24 22:00:00 13.6 0 Calma 13 Norte -- -- -- 80
2020-01-24 21:00:00 13.8 12 Norte 30 Nordeste -- -- -- 80
2020-01-24 20:00:00 14 18 Este 32 Este -- -- -- 81
2020-01-24 19:00:00 14 12 Este 27 Nordeste -- -- -- 80
2020-01-24 18:00:00 14.2 14 Este 28 Este -- -- -- 80
2020-01-24 17:00:00 14.7 17 Este 29 Este -- -- -- 78
2020-01-24 16:00:00 14.9 20 Este 33 Este -- -- -- 76
2020-01-24 15:00:00 15.1 19 Este 33 Este -- -- -- 75
2020-01-24 14:00:00 15.5 29 Este 36 Este -- -- -- 73
2020-01-24 13:00:00 15.9 24 Este 35 Este -- -- -- 72
2020-01-24 12:00:00 16 18 Este 24 Este -- -- -- 70
2020-01-24 11:00:00 14.1 6 Norte 23 Noroeste -- -- -- 71
2020-01-24 10:00:00 13.3 8 Noroeste 14 Norte -- -- -- 74
2020-01-24 09:00:00 12.7 4 Norte 18 Noroeste -- -- -- 75
2020-01-24 08:00:00 12.9 8 Noroeste 15 Oeste -- -- -- 74
2020-01-24 07:00:00 12.9 5 Oeste 17 Noroeste -- -- -- 73
2020-01-24 06:00:00 13.2 10 Noroeste 18 Noroeste -- -- -- 73
2020-01-24 05:00:00 13.1 9 Oeste 21 Noroeste -- -- -- 72
2020-01-24 04:00:00 13.2 11 Noroeste 24 Noroeste -- -- -- 72
2020-01-24 03:00:00 13.3 6 Oeste 27 Norte -- -- -- 71
2020-01-24 02:00:00 13.8 18 Norte 37 Nordeste -- -- -- 70
2020-01-24 01:00:00 13.6 9 Noroeste 50 Nordeste -- -- -- 70
2020-01-24 00:00:00 13.7 33 Nordeste 52 Nordeste -- -- -- 68
2020-01-23 23:00:00 13.5 23 Nordeste 53 Nordeste -- -- -- 75
2020-01-23 22:00:00 13.5 34 Nordeste 53 Nordeste -- -- -- 75
2020-01-23 21:00:00 13.8 33 Nordeste 50 Nordeste -- -- -- 69
2020-01-23 20:00:00 14.1 32 Nordeste 45 Nordeste -- -- -- 66
2020-01-23 19:00:00 14.1 34 Nordeste 48 Nordeste -- -- -- 68
2020-01-23 18:00:00 14.1 34 Nordeste 50 Este -- -- -- 72
2020-01-23 17:00:00 14.6 29 Nordeste 41 Nordeste -- -- -- 72
2020-01-23 16:00:00 15 27 Este 42 Sudeste -- -- -- 71
2020-01-23 15:00:00 15.5 21 Este 37 Este -- -- -- 71
2020-01-23 14:00:00 16.1 24 Este 37 Este -- -- -- 70
2020-01-23 13:00:00 15.7 18 Este 31 Nordeste -- -- -- 74
2020-01-23 12:00:00 15.3 18 Este 33 Este -- -- -- 75
2020-01-23 11:00:00 14.8 13 Este 31 Nordeste -- -- -- 81
2020-01-23 10:00:00 13.7 18 Nordeste 33 Este -- -- -- 83
2020-01-23 09:00:00 12.3 3 Noroeste 23 Nordeste -- -- -- 83
2020-01-23 08:00:00 12.3 8 Nordeste 23 Nordeste -- -- -- 83
2020-01-23 07:00:00 12.1 5 Norte 18 Este -- -- -- 83
2020-01-23 06:00:00 12.6 7 Nordeste 17 Nordeste -- -- -- 82
2020-01-23 05:00:00 12.4 5 Nordeste 18 Nordeste -- -- -- 82
2020-01-23 04:00:00 13 15 Nordeste 21 Nordeste -- -- -- 81
2020-01-23 03:00:00 13.1 10 Nordeste 24 Nordeste -- -- -- 81
2020-01-23 02:00:00 13.2 19 Nordeste 27 Nordeste -- -- -- 80
2020-01-23 01:00:00 13.3 14 Nordeste 20 Nordeste -- -- -- 80
2020-01-23 00:00:00 13.4 6 Norte 17 Nordeste -- -- -- 78
2020-01-22 23:00:00 13.8 15 Nordeste 23 Este -- -- -- 76
2020-01-22 22:00:00 13.8 8 Nordeste 24 Este -- -- -- 74
2020-01-22 21:00:00 13.8 14 Nordeste 27 Nordeste -- -- -- 73
2020-01-22 20:00:00 13.8 13 Nordeste 31 Este -- -- -- 70
2020-01-22 19:00:00 13.9 13 Nordeste 31 Este -- -- -- 69
2020-01-22 18:00:00 14.3 25 Nordeste 41 Este -- -- -- 67
2020-01-22 17:00:00 14.5 25 Nordeste 45 Nordeste -- -- -- 67
2020-01-22 16:00:00 15.2 24 Nordeste 50 Nordeste -- -- -- 66
2020-01-22 15:00:00 15.3 33 Nordeste 56 Este -- -- -- 65
2020-01-22 14:00:00 15.8 29 Nordeste 58 Este -- -- -- 66
2020-01-22 13:00:00 15.6 30 Nordeste 54 Este -- -- -- 70
2020-01-22 12:00:00 15.3 27 Nordeste 60 Nordeste -- -- -- 74
2020-01-22 11:00:00 14.9 37 Nordeste 64 Nordeste -- -- -- 78
2020-01-22 10:00:00 13.9 35 Nordeste 58 Nordeste -- -- -- 78
2020-01-22 09:00:00 13.2 34 Nordeste 55 Nordeste -- -- -- 79
2020-01-22 08:00:00 13.1 31 Nordeste 51 Norte -- -- -- 78
2020-01-22 07:00:00 13 23 Nordeste 47 Nordeste -- -- -- 76
2020-01-22 06:00:00 12.7 26 Nordeste 47 Nordeste -- -- -- 74
2020-01-22 05:00:00 12.7 23 Nordeste 39 Nordeste -- -- -- 71
2020-01-22 04:00:00 12.1 14 Nordeste 25 Norte -- -- -- 75
2020-01-22 03:00:00 11.4 10 Norte 20 Este -- -- -- 81
2020-01-22 02:00:00 10.9 2 Noroeste 18 Nordeste -- -- -- 81
2020-01-22 01:00:00 10.9 5 Noroeste 13 Norte -- -- -- 81
2020-01-22 00:00:00 11.4 8 Nordeste 18 Este -- -- -- 80
2020-01-21 23:00:00 11.5 8 Nordeste 15 Nordeste -- -- -- 79
2020-01-21 22:00:00 11.3 5 Norte 8 Nordeste -- -- -- 78
2020-01-21 21:00:00 11.5 4 Nordeste 11 Este -- -- -- 77
2020-01-21 20:00:00 11.7 8 Este 13 Este -- -- -- 76
2020-01-21 19:00:00 11.8 5 Este 9 Este -- -- -- 76
2020-01-21 18:00:00 11.8 3 Este 7 Este -- -- -- 76
2020-01-21 17:00:00 12 0 Calma 3 Noroeste -- -- -- 77
2020-01-21 16:00:00 12.2 2 Oeste 12 Noroeste -- -- -- 78
2020-01-21 15:00:00 11.8 6 Oeste 21 Noroeste -- -- -- 80
2020-01-21 14:00:00 11.4 10 Noroeste 27 Noroeste -- -- -- 81
2020-01-21 13:00:00 10.3 14 Noroeste 25 Noroeste -- -- -- 82
2020-01-21 12:00:00 10 14 Noroeste 27 Noroeste -- -- -- 83
2020-01-21 11:00:00 9.8 13 Noroeste 19 Noroeste -- -- -- 81
2020-01-21 10:00:00 9.6 8 Noroeste 24 Norte -- -- -- 78
2020-01-21 09:00:00 9.7 22 Noroeste 44 Norte -- -- -- 75
2020-01-21 08:00:00 10.2 27 Norte 51 Nordeste -- -- -- 74
2020-01-21 07:00:00 10.3 28 Norte 71 Norte -- -- -- 74
2020-01-21 06:00:00 9.7 26 Norte 61 Norte -- -- -- 79
2020-01-21 05:00:00 9.6 31 Norte 64 Norte -- -- -- 81
2020-01-21 04:00:00 9.6 23 Norte 36 Noroeste -- -- -- 83
2020-01-21 03:00:00 9.2 7 Norte 43 Nordeste -- -- -- 81
2020-01-21 02:00:00 9.7 23 Nordeste 45 Norte -- -- -- 81
2020-01-21 01:00:00 9.5 19 Norte 42 Nordeste -- -- -- 81
2020-01-21 00:00:00 9.8 19 Nordeste 54 Nordeste -- -- -- 82
2020-01-20 23:00:00 9.5 22 Nordeste 42 Nordeste -- -- -- 83
2020-01-20 22:00:00 9 19 Norte 39 Norte -- -- -- 82
2020-01-20 21:00:00 9.1 18 Norte 38 Norte -- -- -- 80
2020-01-20 20:00:00 9.7 17 Norte 46 Nordeste -- -- -- 79
2020-01-20 19:00:00 9.2 20 Norte 46 Norte -- -- -- 80
2020-01-20 18:00:00 9.7 22 Norte 42 Nordeste -- -- -- 79
2020-01-20 17:00:00 9.8 20 Norte 50 Norte -- -- -- 80
2020-01-20 16:00:00 9.6 21 Norte 37 Noroeste -- -- -- 81
2020-01-20 15:00:00 8.7 17 Norte 41 Norte -- -- -- 80
2020-01-20 14:00:00 8.9 23 Norte 50 Nordeste -- -- -- 77
2020-01-20 13:00:00 10.2 23 Norte 50 Nordeste -- -- -- 74
2020-01-20 12:00:00 11.6 30 Nordeste 56 Nordeste -- -- -- 72
2020-01-20 11:00:00 9.8 35 Norte 90 Nordeste -- -- -- 69
2020-01-20 10:00:00 8.9 44 Norte 103 Norte -- -- -- 64
2020-01-20 09:00:00 8.2 44 Norte 94 Noroeste -- -- -- 66
2020-01-20 08:00:00 8.5 40 Norte 102 Norte -- -- -- 65
2020-01-20 07:00:00 8.4 37 Norte 66 Norte -- -- -- 68
2020-01-20 06:00:00 8.2 23 Norte 60 Norte -- -- -- 71
2020-01-20 05:00:00 8.1 15 Norte 77 Norte -- -- -- 73
2020-01-20 04:00:00 7.8 25 Norte 66 Norte -- -- -- 74
2020-01-20 03:00:00 8 31 Noroeste 54 Noroeste -- -- -- 73
2020-01-20 02:00:00 7.9 32 Norte 67 Norte -- -- -- 73
2020-01-20 01:00:00 8 33 Norte 72 Norte -- -- -- 72
2020-01-20 00:00:00 8.8 29 Norte 69 Norte -- -- -- 69
2020-01-19 23:00:00 8.5 26 Norte 69 Norte -- -- -- 68
2020-01-19 22:00:00 9.5 33 Norte 65 Norte -- -- -- 62
2020-01-19 21:00:00 10.3 25 Norte 61 Nordeste -- -- -- 60
2020-01-19 20:00:00 10.5 13 Norte 44 Este -- -- -- 68
2020-01-19 19:00:00 11.9 16 Sudeste 29 Sudeste -- -- -- 72
2020-01-19 18:00:00 11.6 16 Este 31 Este -- -- -- 70
2020-01-19 17:00:00 13.8 12 Sur 23 Sur -- -- -- 69
2020-01-19 16:00:00 15.7 7 Sur 23 Oeste -- -- -- 60
2020-01-19 15:00:00 15.5 16 Oeste 48 Oeste -- -- -- 53
2020-01-19 14:00:00 15.6 22 Noroeste 43 Noroeste 0 -- -- 47
2020-01-19 13:00:00 14.8 17 Noroeste 51 Noroeste 0 -- -- 50
2020-01-19 12:00:00 15.2 14 Nordeste 36 Noroeste 0 -- -- 51
2020-01-19 11:00:00 15.6 18 Noroeste 37 Noroeste 0 -- -- 48
2020-01-19 10:00:00 14.9 26 Norte 39 Norte 0 -- -- 48
2020-01-19 09:00:00 14 13 Nordeste 27 Nordeste 0 -- -- 64
2020-01-19 08:00:00 15.3 12 Nordeste 44 Norte 0 -- -- 57
2020-01-19 07:00:00 13.3 13 Noroeste 22 Noroeste 0 -- -- 87
2020-01-19 06:00:00 14.3 10 Noroeste 20 Noroeste 0 -- -- 89
2020-01-19 05:00:00 14.9 12 Oeste 41 Sudoeste 0 -- -- 89
2020-01-19 04:00:00 15.1 21 Oeste 42 Oeste 0 -- -- 89
2020-01-19 03:00:00 15.3 31 Oeste 56 Oeste 0 -- -- 89
2020-01-19 02:00:00 15.4 23 Oeste 46 Oeste 0 -- -- 88
2020-01-19 01:00:00 15.2 24 Oeste 42 Oeste 0 -- -- 87
2020-01-19 00:00:00 14.8 20 Oeste 37 Oeste 0 -- -- 87
2020-01-18 23:00:00 14.8 21 Oeste 32 Oeste 0 -- -- 86
2020-01-18 22:00:00 14.8 14 Oeste 27 Sudoeste 0 -- -- 86
2020-01-18 21:00:00 14.6 16 Oeste 32 Sudoeste 0 -- -- 85
2020-01-18 20:00:00 14.2 20 Oeste 30 Oeste 0 -- -- 85
2020-01-18 19:00:00 14.6 22 Oeste 32 Oeste 0 -- -- 86
2020-01-18 18:00:00 15.3 10 Oeste 21 Oeste 0 -- -- 85
2020-01-18 17:00:00 15.5 4 Oeste 12 Sudoeste 0 -- -- 84
2020-01-18 16:00:00 14.9 2 Sudoeste 6 Sur 0 -- -- 81
2020-01-18 15:00:00 14.5 0 Calma 4 Sudoeste 0 -- -- 79
2020-01-18 14:00:00 14.3 3 Sur 10 Sudeste 0 -- -- 80
2020-01-18 13:00:00 15.2 0 Calma 10 Este 0 -- -- 77
2020-01-18 12:00:00 15.1 10 Este 15 Este 0 -- -- 74
2020-01-18 11:00:00 14.9 6 Sudeste 12 Este 0 -- -- 73
2020-01-18 10:00:00 14.5 7 Noroeste 18 Noroeste 0 -- -- 74
2020-01-18 09:00:00 13.7 8 Noroeste 15 Noroeste 0 -- -- 77
2020-01-18 08:00:00 13.7 8 Noroeste 18 Noroeste 0 -- -- 78
2020-01-18 07:00:00 13.8 6 Norte 18 Noroeste 0 -- -- 76
2020-01-18 06:00:00 13 9 Norte 17 Noroeste 0 -- -- 75
2020-01-18 05:00:00 13.6 9 Nordeste 20 Nordeste 0 -- -- 77
2020-01-18 04:00:00 13.6 7 Nordeste 24 Este 0 -- -- 80
2020-01-18 03:00:00 14.1 10 Este 22 Este 0 -- -- 81
2020-01-18 02:00:00 14.2 15 Este 23 Este 0 -- -- 79
2020-01-18 01:00:00 13.9 2 Sudeste 5 Este 0 -- -- 74
2020-01-18 00:00:00 13.4 6 Noroeste 14 Este 0 -- -- 74
2020-01-17 23:00:00 13.7 8 Norte 14 Noroeste 0 -- -- 77
2020-01-17 22:00:00 13 7 Noroeste 11 Noroeste 0 -- -- 77
2020-01-17 21:00:00 13.9 0 Calma 11 Noroeste 0 -- -- 80
2020-01-17 20:00:00 14.2 8 Norte 12 Norte 0 -- -- 81
2020-01-17 19:00:00 15.3 0 Calma 5 Sudeste 0 -- -- 79
2020-01-17 18:00:00 15.5 0 Calma 6 Noroeste 0 -- -- 77
2020-01-17 17:00:00 15.6 2 Oeste 9 Oeste 0 -- -- 75
2020-01-17 16:00:00 16.1 3 Oeste 11 Noroeste 0 -- -- 73
2020-01-17 15:00:00 16.3 7 Oeste 11 Oeste 0 -- -- 78
2020-01-17 14:00:00 17.5 3 Noroeste 12 Oeste 0 -- -- 76
2020-01-17 13:00:00 17.4 6 Oeste 18 Noroeste 0 -- -- 77
2020-01-17 12:00:00 16.7 8 Oeste 24 Noroeste 0 -- -- 80
2020-01-17 11:00:00 15.7 11 Oeste 21 Oeste 0 -- -- 83
2020-01-17 10:00:00 14.6 14 Noroeste 30 Noroeste 0 -- -- 84
2020-01-17 09:00:00 13.8 12 Noroeste 36 Noroeste 0 -- -- 86
2020-01-17 08:00:00 13.3 23 Noroeste 43 Noroeste 0 -- -- 86
2020-01-17 07:00:00 13.3 25 Noroeste 40 Noroeste 0 -- -- 87
2020-01-17 06:00:00 13 20 Noroeste 32 Noroeste 0 -- -- 86
2020-01-17 05:00:00 13 17 Noroeste 36 Noroeste 0 -- -- 86
2020-01-17 04:00:00 13.3 22 Noroeste 33 Oeste 0 -- -- 86
2020-01-17 03:00:00 13.3 22 Noroeste 36 Noroeste 0 -- -- 86
2020-01-17 02:00:00 13.5 20 Noroeste 30 Noroeste 0 -- -- 86
2020-01-17 01:00:00 13.5 19 Noroeste 35 Noroeste 0 -- -- 85
2020-01-17 00:00:00 13.5 19 Noroeste 29 Noroeste 0 -- -- 84
2020-01-16 23:00:00 13.8 18 Noroeste 25 Noroeste 0 -- -- 83
2020-01-16 22:00:00 13.7 9 Oeste 19 Noroeste 0 -- -- 82
2020-01-16 21:00:00 13.5 9 Noroeste 16 Noroeste 0 -- -- 81
2020-01-16 20:00:00 13.4 8 Noroeste 13 Noroeste 0 -- -- 78
2020-01-16 19:00:00 14.3 9 Oeste 13 Oeste 0 -- -- 75
2020-01-16 18:00:00 14.6 7 Oeste 18 Oeste 0 -- -- 73
2020-01-16 17:00:00 14.9 10 Oeste 16 Oeste 0 -- -- 71
2020-01-16 16:00:00 15.6 8 Oeste 16 Oeste 0 -- -- 66
2020-01-16 15:00:00 15.3 10 Oeste 19 Noroeste 0 -- -- 69
2020-01-16 14:00:00 17 3 Sudeste 12 Sudeste 0 -- -- 66
2020-01-16 13:00:00 17 7 Sudeste 13 Sudeste 0 -- -- 67
2020-01-16 12:00:00 16.8 7 Este 17 Este 0 -- -- 68
2020-01-16 11:00:00 15.8 4 Este 15 Este 0 -- -- 69
2020-01-16 10:00:00 13.6 3 Oeste 16 Este 0 -- -- 70
2020-01-16 09:00:00 13.4 12 Este 15 Este 0 -- -- 71
2020-01-16 08:00:00 11.9 3 Nordeste 7 Nordeste 0 -- -- 67
2020-01-16 07:00:00 11.7 4 Este 13 Noroeste 0 -- -- 63
2020-01-16 06:00:00 11.2 12 Noroeste 19 Norte 0 -- -- 62
2020-01-16 05:00:00 13.1 12 Noroeste 40 Noroeste 0 -- -- 61
2020-01-16 04:00:00 12.8 22 Noroeste 38 Noroeste 0 -- -- 61
2020-01-16 03:00:00 12.9 14 Noroeste 43 Noroeste 0 -- -- 63
2020-01-16 02:00:00 12.8 28 Noroeste 40 Noroeste 0 -- -- 66
2020-01-16 01:00:00 12.7 15 Noroeste 32 Noroeste 0 -- -- 66
2020-01-16 00:00:00 13.3 18 Noroeste 46 Noroeste 0 -- -- 72
2020-01-15 23:00:00 13 21 Noroeste 33 Noroeste 0 -- -- 78
2020-01-15 22:00:00 13.1 10 Noroeste 18 Noroeste 0 -- -- 81
2020-01-15 21:00:00 13.4 10 Noroeste 16 Noroeste 0 -- -- 79
2020-01-15 20:00:00 13.7 8 Noroeste 14 Noroeste 0 -- -- 77
2020-01-15 19:00:00 14.6 6 Oeste 12 Oeste 0 -- -- 75
2020-01-15 18:00:00 15 4 Oeste 6 Oeste 0 -- -- 73
2020-01-15 17:00:00 15.5 3 Oeste 5 Norte 0 -- -- 71
2020-01-15 16:00:00 15.8 0 Calma 5 Oeste 0 -- -- 69
2020-01-15 15:00:00 16.1 3 Oeste 5 Oeste 0 -- -- 68
2020-01-15 14:00:00 17.3 0 Calma 6 Este 0 -- -- 65
2020-01-15 13:00:00 17.9 3 Sudeste 7 Sudeste 0 -- -- 69
2020-01-15 12:00:00 15.9 3 Sudeste 7 Sudeste 0 -- -- 74
2020-01-15 11:00:00 14.6 2 Oeste 9 Sudeste 0 -- -- 75
2020-01-15 10:00:00 14.6 6 Este 14 Este 0 -- -- 74
2020-01-15 09:00:00 12.6 3 Nordeste 6 Nordeste 0 -- -- 75
2020-01-15 08:00:00 12.6 4 Norte 12 Este 0 -- -- 74
2020-01-15 07:00:00 13 7 Este 9 Este 0 -- -- 74
2020-01-15 06:00:00 12.8 3 Norte 8 Noroeste 0 -- -- 74
2020-01-15 05:00:00 13.1 4 Norte 14 Noroeste 0 -- -- 74
2020-01-15 04:00:00 13.1 7 Noroeste 17 Noroeste 0 -- -- 76
2020-01-15 03:00:00 13.2 10 Noroeste 19 Noroeste 0 -- -- 79
2020-01-15 02:00:00 13.6 14 Noroeste 24 Noroeste 0 -- -- 80
2020-01-15 01:00:00 13.8 14 Noroeste 29 Noroeste 0 -- -- 79
2020-01-15 00:00:00 14.4 15 Oeste 30 Sudoeste 0 -- -- 78
2020-01-14 23:00:00 14.2 16 Oeste 31 Oeste 0 -- -- 78
2020-01-14 22:00:00 14.2 18 Oeste 35 Oeste 0 -- -- 77
2020-01-14 21:00:00 14.3 20 Oeste 33 Sudoeste 0 -- -- 76
2020-01-14 20:00:00 14.5 17 Oeste 33 Oeste 0 -- -- 75
2020-01-14 19:00:00 14.5 19 Oeste 33 Oeste 0 -- -- 74
2020-01-14 18:00:00 14.5 16 Oeste 33 Sudoeste 0 -- -- 74
2020-01-14 17:00:00 14.8 15 Oeste 34 Oeste 0 -- -- 75
2020-01-14 16:00:00 14.9 13 Oeste 30 Sudoeste 0 -- -- 72
2020-01-14 15:00:00 15.5 13 Oeste 29 Oeste 0 -- -- 71
2020-01-14 14:00:00 16.9 6 Oeste 17 Oeste 0 -- -- 69
2020-01-14 13:00:00 16.8 5 Oeste 12 Oeste 0 -- -- 70
2020-01-14 12:00:00 16.5 6 Oeste 15 Noroeste 0 -- -- 74
2020-01-14 11:00:00 15 6 Noroeste 13 Noroeste 0 -- -- 80
2020-01-14 10:00:00 13.5 2 Sudeste 8 Este 0 -- -- 82
2020-01-14 09:00:00 12.1 6 Noroeste 9 Noroeste 0 -- -- 82
2020-01-14 08:00:00 11.7 2 Norte 4 Norte 0 -- -- 82
2020-01-14 07:00:00 11.5 0 Calma 12 Noroeste 0 -- -- 83
2020-01-14 06:00:00 11.2 5 Noroeste 15 Noroeste 0 -- -- 83
2020-01-14 05:00:00 11.3 7 Noroeste 18 Noroeste 0 -- -- 82
2020-01-14 04:00:00 11.7 9 Noroeste 31 Noroeste 0 -- -- 81
2020-01-14 03:00:00 12.1 17 Noroeste 28 Noroeste 0 -- -- 80
2020-01-14 02:00:00 12.1 14 Noroeste 24 Noroeste 0 -- -- 79
2020-01-14 01:00:00 12.5 14 Noroeste 22 Noroeste 0 -- -- 77
2020-01-14 00:00:00 13.2 14 Oeste 26 Oeste 0 -- -- 75
2020-01-13 23:00:00 13.2 14 Oeste 27 Oeste 0 -- -- 74
2020-01-13 22:00:00 13.3 16 Oeste 30 Oeste 0 -- -- 73
2020-01-13 21:00:00 13.2 15 Oeste 28 Oeste 0 -- -- 72
2020-01-13 20:00:00 13.3 12 Oeste 26 Sudoeste 0 -- -- 71
2020-01-13 19:00:00 13.5 6 Oeste 21 Sudoeste 0 -- -- 70
2020-01-13 18:00:00 13.9 4 Sudoeste 16 Oeste 0 -- -- 68
2020-01-13 17:00:00 14.4 4 Oeste 18 Noroeste 0 -- -- 69
2020-01-13 16:00:00 15 5 Oeste 13 Oeste 0 -- -- 70
2020-01-13 15:00:00 14.7 6 Oeste 12 Oeste 0 -- -- 70
2020-01-13 14:00:00 16.2 5 Oeste 11 Noroeste 0 -- -- 66
2020-01-13 13:00:00 16.5 6 Oeste 12 Noroeste 0 -- -- 67
2020-01-13 12:00:00 15.9 4 Oeste 8 Sudoeste 0 -- -- 69
2020-01-13 11:00:00 15.5 0 Calma 6 Oeste 0 -- -- 75
2020-01-13 10:00:00 12.9 4 Oeste 6 Oeste 0 -- -- 79
2020-01-13 09:00:00 11.5 4 Noroeste 8 Norte 0 -- -- 80
2020-01-13 08:00:00 11.2 2 Norte 9 Norte 0 -- -- 78
2020-01-13 07:00:00 11 5 Norte 17 Norte 0 -- -- 75
2020-01-13 06:00:00 10.9 10 Norte 15 Norte 0 -- -- 75
2020-01-13 05:00:00 11.2 5 Norte 11 Norte 0 -- -- 75
2020-01-13 04:00:00 11.3 7 Norte 11 Norte 0 -- -- 75
2020-01-13 03:00:00 11.2 8 Norte 13 Norte 0 -- -- 77
2020-01-13 02:00:00 12.1 6 Nordeste 27 Noroeste 0 -- -- 78
2020-01-13 01:00:00 11.9 11 Noroeste 21 Noroeste 0 -- -- 80
2020-01-13 00:00:00 12.1 8 Norte 13 Norte 0 -- -- 79
2020-01-12 23:00:00 12.4 8 Noroeste 17 Noroeste 0 -- -- 77
2020-01-12 22:00:00 13.1 10 Noroeste 24 Noroeste 0 -- -- 75
2020-01-12 21:00:00 13.4 17 Oeste 24 Noroeste 0 -- -- 75
2020-01-12 20:00:00 13.6 8 Oeste 19 Oeste 0 -- -- 74
2020-01-12 19:00:00 13.8 5 Oeste 17 Oeste 0 -- -- 72
2020-01-12 18:00:00 14.1 8 Oeste 16 Oeste 0 -- -- 71
2020-01-12 17:00:00 14.6 8 Oeste 17 Noroeste 0 -- -- 70
2020-01-12 16:00:00 15.4 9 Oeste 15 Sudoeste 0 -- -- 65
2020-01-12 15:00:00 15 4 Oeste 13 Sudoeste 0 -- -- 65
2020-01-12 14:00:00 16.3 5 Oeste 11 Oeste 0 -- -- 57
2020-01-12 13:00:00 16.4 5 Oeste 14 Noroeste 0 -- -- 58
2020-01-12 12:00:00 16.4 8 Oeste 13 Noroeste 0 -- -- 59
2020-01-12 11:00:00 15.4 10 Noroeste 16 Noroeste 0 -- -- 64
2020-01-12 10:00:00 13 5 Noroeste 11 Norte 0 -- -- 67
2020-01-12 09:00:00 11.6 7 Norte 12 Norte 0 -- -- 68
2020-01-12 08:00:00 11.6 4 Norte 13 Norte 0 -- -- 68
2020-01-12 07:00:00 11.1 8 Norte 13 Norte 0 -- -- 72
2020-01-12 06:00:00 11.5 7 Norte 10 Norte 0 -- -- 76
2020-01-12 05:00:00 11.5 5 Noroeste 12 Norte 0 -- -- 76
2020-01-12 04:00:00 11.5 6 Norte 15 Norte 0 -- -- 76
2020-01-12 03:00:00 11.6 6 Norte 14 Norte 0 -- -- 76
2020-01-12 02:00:00 11.7 8 Norte 14 Norte 0 -- -- 75
2020-01-12 01:00:00 11.9 7 Norte 10 Nordeste 0 -- -- 74
2020-01-12 00:00:00 12.7 6 Norte 15 Este 0 -- -- 73
2020-01-11 23:00:00 12.9 5 Norte 20 Nordeste 0 -- -- 72
2020-01-11 22:00:00 13.3 7 Norte 43 Nordeste 0 -- -- 71
2020-01-11 21:00:00 13.7 24 Nordeste 40 Este 0 -- -- 70
2020-01-11 20:00:00 13.8 27 Este 45 Este 0 -- -- 67
2020-01-11 19:00:00 14 25 Este 42 Nordeste 0 -- -- 65
2020-01-11 18:00:00 14.5 20 Este 42 Nordeste 0 -- -- 53
2020-01-11 17:00:00 15.1 15 Este 40 Nordeste 0 -- -- 50
2020-01-11 16:00:00 15.7 16 Nordeste 46 Nordeste 0 -- -- 46
2020-01-11 15:00:00 15.5 27 Nordeste 55 Este 0 -- -- 45
2020-01-11 14:00:00 16.2 26 Nordeste 56 Este 0 -- -- 45
2020-01-11 13:00:00 16.2 26 Nordeste 51 Nordeste 0 -- -- 47
2020-01-11 12:00:00 15.8 23 Nordeste 48 Este 0 -- -- 48
2020-01-11 11:00:00 14.8 10 Norte 42 Nordeste 0 -- -- 57
2020-01-11 10:00:00 13.6 13 Nordeste 39 Nordeste 0 -- -- 57
2020-01-11 09:00:00 13.2 18 Nordeste 39 Norte 0 -- -- 57
2020-01-11 08:00:00 13.1 16 Norte 43 Nordeste 0 -- -- 56
2020-01-11 07:00:00 12.8 15 Norte 44 Norte 0 -- -- 58
2020-01-11 06:00:00 13 18 Norte 47 Norte 0 -- -- 57
2020-01-11 05:00:00 13.1 21 Norte 45 Noroeste 0 -- -- 56
2020-01-11 04:00:00 13.4 22 Norte 38 Norte 0 -- -- 53
2020-01-11 03:00:00 13.4 12 Norte 42 Norte 0 -- -- 51
2020-01-11 02:00:00 13.5 16 Norte 37 Norte 0 -- -- 49
2020-01-11 01:00:00 13.5 11 Norte 32 Nordeste 0 -- -- 50
2020-01-11 00:00:00 13.2 14 Nordeste 28 Nordeste 0 -- -- 59
2020-01-10 23:00:00 13.7 13 Nordeste 19 Este 0 -- -- 68
2020-01-10 22:00:00 13 7 Nordeste 16 Nordeste 0 -- -- 72
2020-01-10 21:00:00 13.4 6 Nordeste 10 Nordeste 0 -- -- 74
2020-01-10 20:00:00 13.9 5 Norte 32 Nordeste 0 -- -- 73
2020-01-10 19:00:00 14.4 21 Este 45 Sudeste 0 -- -- 72
2020-01-10 18:00:00 14.6 21 Este 48 Este 0 -- -- 67
2020-01-10 17:00:00 14.9 25 Este 42 Sudeste 0 -- -- 68
2020-01-10 16:00:00 14.9 22 Este 33 Este 0 -- -- 73
2020-01-10 15:00:00 16.2 11 Este 16 Este 0 -- -- 69
2020-01-10 14:00:00 17.5 4 Oeste 15 Oeste 0 -- -- 64
2020-01-10 13:00:00 17.3 9 Oeste 22 Oeste 0 -- -- 67
2020-01-10 12:00:00 15.4 17 Noroeste 32 Noroeste 0 -- -- 72
2020-01-10 11:00:00 14.5 24 Noroeste 36 Noroeste 0 -- -- 77
2020-01-10 10:00:00 13.7 21 Noroeste 40 Noroeste 0 -- -- 79
2020-01-10 09:00:00 12.8 22 Noroeste 32 Noroeste 0 -- -- 81
2020-01-10 08:00:00 12.8 23 Noroeste 32 Noroeste 0 -- -- 81
2020-01-10 07:00:00 12.7 18 Noroeste 28 Noroeste 0 -- -- 81
2020-01-10 06:00:00 12.8 15 Noroeste 26 Noroeste 0 -- -- 81
2020-01-10 05:00:00 13.1 14 Noroeste 27 Noroeste 0 -- -- 81
2020-01-10 04:00:00 13.3 13 Noroeste 27 Noroeste 0 -- -- 81
2020-01-10 03:00:00 13.3 16 Noroeste 27 Noroeste 0 -- -- 80
2020-01-10 02:00:00 13.8 20 Oeste 31 Oeste 0 -- -- 77
2020-01-10 01:00:00 13.9 14 Oeste 24 Oeste 0 -- -- 77
2020-01-10 00:00:00 13.8 9 Oeste 22 Oeste 0 -- -- 77
2020-01-09 23:00:00 13.9 8 Oeste 17 Oeste 0 -- -- 76
2020-01-09 22:00:00 13.8 12 Oeste 19 Oeste 0 -- -- 75
2020-01-09 21:00:00 13.9 11 Oeste 18 Oeste 0 -- -- 75
2020-01-09 20:00:00 13.6 7 Oeste 14 Oeste 0 -- -- 74
2020-01-09 19:00:00 14 3 Sur 6 Sudeste 0 -- -- 73
2020-01-09 18:00:00 14.3 3 Sudeste 9 Este 0 -- -- 73
2020-01-09 17:00:00 14.6 4 Sudeste 12 Este 0 -- -- 72
2020-01-09 16:00:00 15.1 8 Sudeste 15 Sudeste 0 -- -- 70
2020-01-09 15:00:00 15.8 6 Sudeste 13 Este 0 -- -- 67
2020-01-09 14:00:00 17.5 5 Sudeste 11 Este 0 -- -- 63
2020-01-09 13:00:00 16.7 3 Oeste 13 Oeste 0 -- -- 66
2020-01-09 12:00:00 16.4 5 Oeste 13 Noroeste 0 -- -- 69
2020-01-09 11:00:00 15.5 3 Oeste 13 Este 0 -- -- 73
2020-01-09 10:00:00 13.5 2 Oeste 14 Norte 0 -- -- 76
2020-01-09 09:00:00 12.3 8 Norte 18 Nordeste 0 -- -- 76
2020-01-09 08:00:00 12 8 Norte 15 Norte 0 -- -- 75
2020-01-09 07:00:00 12.4 7 Norte 15 Norte 0 -- -- 74
2020-01-09 06:00:00 12.7 8 Norte 16 Norte 0 -- -- 71
2020-01-09 05:00:00 12.8 9 Norte 18 Norte 0 -- -- 70
2020-01-09 04:00:00 12.4 10 Norte 17 Norte 0 -- -- 71
2020-01-09 03:00:00 12.9 7 Norte 13 Noroeste 0 -- -- 73
2020-01-09 02:00:00 12.9 8 Norte 15 Norte 0 -- -- 75
2020-01-09 01:00:00 12.8 5 Norte 13 Este 0 -- -- 77
2020-01-09 00:00:00 12.9 5 Norte 29 Este 0 -- -- 78
2020-01-08 23:00:00 12.9 8 Nordeste 27 Nordeste 0 -- -- 80
2020-01-08 22:00:00 13 11 Nordeste 34 Este 0 -- -- 80
2020-01-08 21:00:00 13 14 Este 35 Nordeste 0 -- -- 79
2020-01-08 20:00:00 13.1 17 Este 32 Nordeste 0 -- -- 78
2020-01-08 19:00:00 13.2 24 Este 32 Este 0 -- -- 77
2020-01-08 18:00:00 13.6 19 Este 36 Este 0 -- -- 77
2020-01-08 17:00:00 13.7 27 Este 36 Este 0 -- -- 77
2020-01-08 16:00:00 14.3 15 Sudeste 21 Sudeste 0 -- -- 74
2020-01-08 15:00:00 15 6 Sudeste 11 Sudeste 0 -- -- 73
2020-01-08 14:00:00 15.9 4 Noroeste 10 Oeste 0 -- -- 71
2020-01-08 13:00:00 16.3 6 Oeste 17 Noroeste 0 -- -- 75
2020-01-08 12:00:00 15 10 Noroeste 19 Noroeste 0 -- -- 80
2020-01-08 11:00:00 13.9 12 Noroeste 22 Noroeste 0 -- -- 82
2020-01-08 10:00:00 12.9 11 Noroeste 17 Noroeste 0 -- -- 84
2020-01-08 09:00:00 12.4 8 Noroeste 14 Noroeste 0 -- -- 85
2020-01-08 08:00:00 12.3 7 Oeste 15 Oeste 0 -- -- 85
2020-01-08 07:00:00 12.3 8 Oeste 19 Noroeste 0 -- -- 85
2020-01-08 06:00:00 12.4 10 Noroeste 19 Noroeste 0 -- -- 85
2020-01-08 05:00:00 12.3 9 Noroeste 18 Noroeste 0 -- -- 85
2020-01-08 04:00:00 12 9 Noroeste 15 Noroeste 0 -- -- 85
2020-01-08 03:00:00 11.9 9 Noroeste 19 Noroeste 0 -- -- 84
2020-01-08 02:00:00 12.4 15 Noroeste 24 Noroeste 0 -- -- 83
2020-01-08 01:00:00 12.5 14 Noroeste 27 Noroeste 0 -- -- 83
2020-01-08 00:00:00 12.4 13 Noroeste 22 Noroeste 0 -- -- 82
2020-01-07 23:00:00 12.5 10 Noroeste 17 Noroeste 0 -- -- 80
2020-01-07 22:00:00 12.9 12 Noroeste 20 Oeste 0 -- -- 78
2020-01-07 21:00:00 13.2 13 Oeste 18 Oeste 0 -- -- 77
2020-01-07 20:00:00 13.2 7 Oeste 13 Oeste 0 -- -- 76
2020-01-07 19:00:00 13.7 3 Oeste 10 Oeste 0 -- -- 75
2020-01-07 18:00:00 14 5 Oeste 10 Oeste 0 -- -- 74
2020-01-07 17:00:00 14.6 3 Oeste 13 Sudoeste 0 -- -- 73
2020-01-07 16:00:00 15.4 4 Sudoeste 9 Sur 0 -- -- 69
2020-01-07 15:00:00 15.5 4 Sudoeste 8 Sur 0 -- -- 70
2020-01-07 14:00:00 16.9 3 Sudoeste 5 Oeste 0 -- -- 68
2020-01-07 13:00:00 16.4 3 Oeste 6 Oeste 0 -- -- 69
2020-01-07 12:00:00 16.4 3 Oeste 7 Sudoeste 0 -- -- 72
2020-01-07 11:00:00 15.1 2 Oeste 7 Oeste 0 -- -- 77
2020-01-07 10:00:00 12.8 3 Noroeste 6 Noroeste 0 -- -- 80
2020-01-07 09:00:00 11.4 5 Noroeste 12 Norte 0 -- -- 81
2020-01-07 08:00:00 11.4 7 Norte 12 Norte 0 -- -- 80
2020-01-07 07:00:00 11.3 7 Norte 12 Norte 0 -- -- 81
2020-01-07 06:00:00 11.6 7 Norte 14 Norte 0 -- -- 81
2020-01-07 05:00:00 11.5 8 Noroeste 15 Noroeste 0 -- -- 81
2020-01-07 04:00:00 11.6 9 Noroeste 15 Noroeste 0 -- -- 80
2020-01-07 03:00:00 11.6 6 Noroeste 13 Norte 0 -- -- 80
2020-01-07 02:00:00 11.7 6 Noroeste 9 Noroeste 0 -- -- 78
2020-01-07 01:00:00 12.3 6 Norte 9 Norte 0 -- -- 77
2020-01-07 00:00:00 12.4 4 Norte 7 Norte 0 -- -- 76
2020-01-06 23:00:00 12.4 4 Norte 8 Norte 0 -- -- 75
2020-01-06 22:00:00 12.6 4 Norte 8 Norte 0 -- -- 74
2020-01-06 21:00:00 12.8 4 Norte 10 Este 0 -- -- 73
2020-01-06 20:00:00 13.1 7 Este 10 Este 0 -- -- 72
2020-01-06 19:00:00 13.5 8 Este 21 Este 0 -- -- 71
2020-01-06 18:00:00 13.9 15 Este 23 Este 0 -- -- 70
2020-01-06 17:00:00 13.9 18 Este 22 Sudeste 0 -- -- 70
2020-01-06 16:00:00 14.8 9 Sudeste 16 Este 0 -- -- 65
2020-01-06 15:00:00 14.8 6 Sudeste 23 Este 0 -- -- 65
2020-01-06 14:00:00 15.3 17 Este 25 Este 0 -- -- 63
2020-01-06 13:00:00 15.7 20 Este 32 Este 0 -- -- 62
2020-01-06 12:00:00 15.4 16 Este 23 Este 0 -- -- 64
2020-01-06 11:00:00 15.1 15 Este 20 Sudeste 0 -- -- 66
2020-01-06 10:00:00 13.9 14 Nordeste 21 Nordeste 0 -- -- 72